Time;durP1;ratioP1;P1;durP2;ratioP2;P2;SDS_P1;SDS_P2;PMS_P1;PMS_P2;Temp;Humidity;BMP_temperature;BMP_pressure;BME280_temperature;BME280_humidity;BME280_pressure;Samples;Min_cycle;Max_cycle;Signal;HPM_P1;HPM_P2
2023/12/23 00:02:25;;;;;;;;;;;;;;;;;;5092985;28;20007;-69
2023/12/23 00:04:51;;;;;;;;;;;;;;;;;;5093177;28;20031;-70
2023/12/23 00:07:17;;;;;;;;;;;;;;;;;;5093885;28;19912;-69
2023/12/23 00:09:43;;;;;;;;;;;;;;;;;;5096407;28;19908;-70
2023/12/23 00:12:09;;;;;;;;;;;;;;;;;;5097323;28;19991;-70
2023/12/23 00:14:35;;;;;;;;;;;;;;;;;;5095421;28;19922;-69
2023/12/23 00:17:01;;;;;;;;;;;;;;;;;;5094973;28;19915;-69
2023/12/23 00:19:27;;;;;;;;;;;;;;;;;;5096633;28;19916;-69
2023/12/23 00:21:54;;;;;;;;;;;;;;;;;;5096497;28;19908;-69
2023/12/23 00:24:20;;;;;;;;;;;;;;;;;;5094680;28;19919;-69
2023/12/23 00:26:46;;;;;;;;;;;;;;;;;;5096481;28;19908;-69
2023/12/23 00:29:12;;;;;;;;;;;;;;;;;;5096512;28;20280;-69
2023/12/23 00:31:38;;;;;;;;;;;;;;;;;;5096103;28;20046;-70
2023/12/23 00:34:04;;;;;;;;;;;;;;;;;;5096411;28;19998;-69
2023/12/23 00:36:30;;;;;;;;;;;;;;;;;;5096332;28;19908;-70
2023/12/23 00:38:56;;;;;;;;;;;;;;;;;;5095892;28;20304;-70
2023/12/23 00:41:22;;;;;;;;;;;;;;;;;;5094920;28;19912;-70
2023/12/23 00:43:48;;;;;;;;;;;;;;;;;;5096030;28;19920;-70
2023/12/23 00:46:14;;;;;;;;;;;;;;;;;;5095797;28;19915;-69
2023/12/23 00:48:40;;;;;;;;;;;;;;;;;;5096122;28;19996;-70
2023/12/23 00:51:06;;;;;;;;;;;;;;;;;;5096038;28;19908;-69
2023/12/23 00:53:32;;;;;;;;;;;;;;;;;;5095572;28;19953;-69
2023/12/23 00:55:58;;;;;;;;;;;;;;;;;;5095980;28;19991;-69
2023/12/23 00:58:24;;;;;;;;;;;;;;;;;;5095591;28;19909;-70
2023/12/23 01:00:50;;;;;;;;;;;;;;;;;;5095894;28;19909;-70
2023/12/23 01:03:16;;;;;;;;;;;;;;;;;;5095747;28;19955;-69
2023/12/23 01:05:42;;;;;;;;;;;;;;;;;;5095435;28;19908;-69
2023/12/23 01:08:08;;;;;;;;;;;;;;;;;;5095785;28;19914;-69
2023/12/23 01:10:34;;;;;;;;;;;;;;;;;;5095688;28;19912;-69
2023/12/23 01:13:00;;;;;;;;;;;;;;;;;;5095270;28;19915;-69
2023/12/23 01:15:26;;;;;;;;;;;;;;;;;;5095508;28;19908;-69
2023/12/23 01:17:52;;;;;;;;;;;;;;;;;;5095417;28;19914;-69
2023/12/23 01:20:18;;;;;;;;;;;;;;;;;;5095133;28;19987;-69
2023/12/23 01:22:44;;;;;;;;;;;;;;;;;;5095333;28;20268;-69
2023/12/23 01:25:10;;;;;;;;;;;;;;;;;;5095236;28;19974;-69
2023/12/23 01:27:36;;;;;;;;;;;;;;;;;;5095000;28;19908;-69
2023/12/23 01:30:02;;;;;;;;;;;;;;;;;;5095294;28;19915;-69
2023/12/23 01:32:28;;;;;;;;;;;;;;;;;;5095199;28;20347;-69
2023/12/23 01:34:54;;;;;;;;;;;;;;;;;;5094944;28;19915;-69
2023/12/23 01:37:20;;;;;;;;;;;;;;;;;;5095167;28;19908;-69
2023/12/23 01:39:46;;;;;;;;;;;;;;;;;;5095107;28;19912;-69
2023/12/23 01:42:12;;;;;;;;;;;;;;;;;;5094499;28;19908;-69
2023/12/23 01:44:38;;;;;;;;;;;;;;;;;;5095018;28;19927;-70
2023/12/23 01:47:04;;;;;;;;;;;;;;;;;;5094969;28;19939;-69
2023/12/23 01:49:29;;;;;;;;;;;;;;;;;;5094528;28;19908;-69
2023/12/23 01:51:55;;;;;;;;;;;;;;;;;;5094986;28;19908;-69
2023/12/23 01:54:21;;;;;;;;;;;;;;;;;;5094841;28;19908;-69
2023/12/23 01:56:47;;;;;;;;;;;;;;;;;;5093085;28;20368;-69
2023/12/23 01:59:13;;;;;;;;;;;;;;;;;;5095092;28;20393;-69
2023/12/23 02:01:39;;;;;;;;;;;;;;;;;;5094236;28;19908;-69
2023/12/23 02:04:05;;;;;;;;;;;;;;;;;;5094745;28;20360;-69
2023/12/23 02:06:31;;;;;;;;;;;;;;;;;;5094615;28;19908;-69
2023/12/23 02:08:57;;;;;;;;;;;;;;;;;;5094125;28;19912;-69
2023/12/23 02:11:23;;;;;;;;;;;;;;;;;;5094546;28;19996;-69
2023/12/23 02:13:49;;;;;;;;;;;;;;;;;;5094519;28;19954;-69
2023/12/23 02:16:15;;;;;;;;;;;;;;;;;;5094022;28;19947;-69
2023/12/23 02:18:41;;;;;;;;;;;;;;;;;;5094357;28;19908;-69
2023/12/23 02:21:07;;;;;;;;;;;;;;;;;;5094405;28;19955;-69
2023/12/23 02:23:33;;;;;;;;;;;;;;;;;;5093229;28;19909;-69
2023/12/23 02:26:00;;;;;;;;;;;;;;;;;;5094387;28;19908;-69
2023/12/23 02:28:26;;;;;;;;;;;;;;;;;;5092965;28;20053;-69
2023/12/23 02:30:52;;;;;;;;;;;;;;;;;;5093241;28;19969;-69
2023/12/23 02:33:17;;;;;;;;;;;;;;;;;;5094138;28;19912;-69
2023/12/23 02:35:44;;;;;;;;;;;;;;;;;;5092744;28;19938;-69
2023/12/23 02:38:10;;;;;;;;;;;;;;;;;;5093770;28;19908;-69
2023/12/23 02:40:36;;;;;;;;;;;;;;;;;;5092759;28;19916;-69
2023/12/23 02:43:02;;;;;;;;;;;;;;;;;;5093725;28;19921;-69
2023/12/23 02:45:27;;;;;;;;;;;;;;;;;;5093572;28;19959;-69
2023/12/23 02:47:53;;;;;;;;;;;;;;;;;;5093980;28;19908;-69
2023/12/23 02:50:19;;;;;;;;;;;;;;;;;;5093919;28;19912;-69
2023/12/23 02:52:45;;;;;;;;;;;;;;;;;;5092224;28;19912;-69
2023/12/23 02:55:11;;;;;;;;;;;;;;;;;;5093903;28;19908;-69
2023/12/23 02:57:37;;;;;;;;;;;;;;;;;;5094046;28;19912;-69
2023/12/23 03:00:03;;;;;;;;;;;;;;;;;;5092113;28;20304;-69
2023/12/23 03:02:29;;;;;;;;;;;;;;;;;;5094402;28;20337;-70
2023/12/23 03:04:55;;;;;;;;;;;;;;;;;;5093399;28;19967;-70
2023/12/23 03:07:21;;;;;;;;;;;;;;;;;;5093916;28;20307;-69
2023/12/23 03:09:47;;;;;;;;;;;;;;;;;;5092511;28;20249;-69
2023/12/23 03:12:13;;;;;;;;;;;;;;;;;;5093543;28;20376;-69
2023/12/23 03:14:39;;;;;;;;;;;;;;;;;;5094275;28;19908;-69
2023/12/23 03:17:05;;;;;;;;;;;;;;;;;;5094017;28;19961;-69
2023/12/23 03:19:30;;;;;;;;;;;;;;;;;;5093303;28;19948;-69
2023/12/23 03:21:56;;;;;;;;;;;;;;;;;;5093563;28;19915;-69
2023/12/23 03:24:22;;;;;;;;;;;;;;;;;;5093600;28;20003;-69
2023/12/23 03:26:48;;;;;;;;;;;;;;;;;;5093216;28;19954;-69
2023/12/23 03:29:14;;;;;;;;;;;;;;;;;;5093892;28;19953;-69
2023/12/23 03:31:40;;;;;;;;;;;;;;;;;;5092250;28;19908;-69
2023/12/23 03:34:06;;;;;;;;;;;;;;;;;;5093188;28;19958;-69
2023/12/23 03:36:32;;;;;;;;;;;;;;;;;;5092227;28;19908;-69
2023/12/23 03:38:59;;;;;;;;;;;;;;;;;;5093543;28;20002;-69
2023/12/23 03:41:25;;;;;;;;;;;;;;;;;;5091834;28;20342;-69
2023/12/23 03:43:51;;;;;;;;;;;;;;;;;;5096377;28;20334;-70
2023/12/23 03:46:17;;;;;;;;;;;;;;;;;;5097432;28;19912;-69
2023/12/23 03:48:42;;;;;;;;;;;;;;;;;;5096940;28;19908;-69
2023/12/23 03:51:08;;;;;;;;;;;;;;;;;;5095829;28;20011;-69
2023/12/23 03:53:34;;;;;;;;;;;;;;;;;;5097070;28;19908;-69
2023/12/23 03:56:00;;;;;;;;;;;;;;;;;;5096660;28;19954;-69
2023/12/23 03:58:26;;;;;;;;;;;;;;;;;;5097081;28;19961;-69
2023/12/23 04:00:52;;;;;;;;;;;;;;;;;;5096945;28;19914;-69
2023/12/23 04:03:18;;;;;;;;;;;;;;;;;;5096512;28;19990;-68
2023/12/23 04:05:44;;;;;;;;;;;;;;;;;;5095549;28;19916;-68
2023/12/23 04:08:10;;;;;;;;;;;;;;;;;;5095128;28;19908;-68
2023/12/23 04:10:36;;;;;;;;;;;;;;;;;;5096853;28;19908;-68
2023/12/23 04:13:02;;;;;;;;;;;;;;;;;;5096815;28;19915;-69
2023/12/23 04:15:28;;;;;;;;;;;;;;;;;;5096356;28;20245;-70
2023/12/23 04:17:54;;;;;;;;;;;;;;;;;;5096618;28;20002;-69
2023/12/23 04:20:20;;;;;;;;;;;;;;;;;;5097266;28;19954;-70
2023/12/23 04:22:48;;;;;;;;;;;;;;;;;;5096144;28;20003;-69
2023/12/23 04:25:14;;;;;;;;;;;;;;;;;;5096517;28;19916;-69
2023/12/23 04:27:40;;;;;;;;;;;;;;;;;;5096451;28;19961;-69
2023/12/23 04:30:06;;;;;;;;;;;;;;;;;;5096020;28;19908;-69
2023/12/23 04:32:32;;;;;;;;;;;;;;;;;;5096383;28;19916;-69
2023/12/23 04:34:59;;;;;;;;;;;;;;;;;;5096261;28;20066;-69
2023/12/23 04:37:25;;;;;;;;;;;;;;;;;;5095931;28;19909;-69
2023/12/23 04:39:51;;;;;;;;;;;;;;;;;;5094991;28;19915;-70
2023/12/23 04:42:17;;;;;;;;;;;;;;;;;;5095870;28;19956;-70
2023/12/23 04:44:43;;;;;;;;;;;;;;;;;;5095767;28;20015;-70
2023/12/23 04:47:09;;;;;;;;;;;;;;;;;;5096052;28;19915;-70
2023/12/23 04:49:35;;;;;;;;;;;;;;;;;;5094766;28;19908;-70
2023/12/23 04:52:00;;;;;;;;;;;;;;;;;;5095570;28;19914;-68
2023/12/23 04:54:27;;;;;;;;;;;;;;;;;;5095482;28;19953;-68
2023/12/23 04:56:53;;;;;;;;;;;;;;;;;;5094636;28;19947;-69
2023/12/23 04:59:19;;;;;;;;;;;;;;;;;;5095437;28;20000;-69
2023/12/23 05:01:45;;;;;;;;;;;;;;;;;;5095796;28;19954;-68
2023/12/23 05:04:11;;;;;;;;;;;;;;;;;;5095684;28;19931;-69
2023/12/23 05:06:37;;;;;;;;;;;;;;;;;;5094001;28;19919;-69
2023/12/23 05:09:05;;;;;;;;;;;;;;;;;;5095663;28;19915;-69
2023/12/23 05:11:31;;;;;;;;;;;;;;;;;;5095216;28;19915;-69
2023/12/23 05:13:57;;;;;;;;;;;;;;;;;;5094259;28;20110;-69
2023/12/23 05:16:25;;;;;;;;;;;;;;;;;;5095514;28;19908;-69
2023/12/23 05:18:51;;;;;;;;;;;;;;;;;;5095091;28;19908;-69
2023/12/23 05:21:16;;;;;;;;;;;;;;;;;;5094179;28;20253;-68
2023/12/23 05:23:42;;;;;;;;;;;;;;;;;;5095352;28;19911;-69
2023/12/23 05:26:09;;;;;;;;;;;;;;;;;;5094966;28;19915;-68
2023/12/23 05:28:34;;;;;;;;;;;;;;;;;;5095398;28;20249;-69
2023/12/23 05:31:00;;;;;;;;;;;;;;;;;;5095282;28;19919;-69
2023/12/23 05:33:26;;;;;;;;;;;;;;;;;;5094735;28;19915;-69
2023/12/23 05:35:52;;;;;;;;;;;;;;;;;;5095507;28;19915;-68
2023/12/23 05:38:18;;;;;;;;;;;;;;;;;;5095187;28;19954;-69
2023/12/23 05:40:44;;;;;;;;;;;;;;;;;;5094905;28;19908;-69
2023/12/23 05:43:10;;;;;;;;;;;;;;;;;;5094781;28;20359;-69
2023/12/23 05:45:37;;;;;;;;;;;;;;;;;;5094892;28;19959;-69
2023/12/23 05:48:03;;;;;;;;;;;;;;;;;;5094603;28;19908;-69
2023/12/23 05:50:29;;;;;;;;;;;;;;;;;;5094872;28;19961;-69
2023/12/23 05:52:55;;;;;;;;;;;;;;;;;;5094755;28;19912;-69
2023/12/23 05:55:21;;;;;;;;;;;;;;;;;;5093103;28;19908;-69
2023/12/23 05:57:46;;;;;;;;;;;;;;;;;;5094722;28;19908;-69
2023/12/23 06:00:12;;;;;;;;;;;;;;;;;;5094723;28;19912;-69
2023/12/23 06:02:38;;;;;;;;;;;;;;;;;;5092993;28;19962;-69
2023/12/23 06:05:04;;;;;;;;;;;;;;;;;;5093866;28;19916;-68
2023/12/23 06:07:30;;;;;;;;;;;;;;;;;;5094595;28;20454;-68
2023/12/23 06:09:56;;;;;;;;;;;;;;;;;;5094123;28;20348;-68
2023/12/23 06:12:23;;;;;;;;;;;;;;;;;;5094667;28;19908;-68
2023/12/23 06:14:50;;;;;;;;;;;;;;;;;;5094076;28;20409;-69
2023/12/23 06:17:16;;;;;;;;;;;;;;;;;;5094399;28;19912;-69
2023/12/23 06:19:42;;;;;;;;;;;;;;;;;;5094480;28;19974;-69
2023/12/23 06:22:08;;;;;;;;;;;;;;;;;;5093917;28;19915;-69
2023/12/23 06:24:34;;;;;;;;;;;;;;;;;;5094387;28;19959;-69
2023/12/23 06:27:00;;;;;;;;;;;;;;;;;;5094235;28;19961;-69
2023/12/23 06:29:26;;;;;;;;;;;;;;;;;;5093848;28;19911;-69
2023/12/23 06:31:52;;;;;;;;;;;;;;;;;;5094134;28;19969;-69
2023/12/23 06:34:17;;;;;;;;;;;;;;;;;;5094155;28;19911;-69
2023/12/23 06:36:43;;;;;;;;;;;;;;;;;;5093678;28;19947;-69
2023/12/23 06:39:09;;;;;;;;;;;;;;;;;;5092856;28;20276;-69
2023/12/23 06:41:35;;;;;;;;;;;;;;;;;;5092775;28;20265;-69
2023/12/23 06:44:02;;;;;;;;;;;;;;;;;;5093466;28;20315;-69
2023/12/23 06:46:28;;;;;;;;;;;;;;;;;;5094128;28;19919;-69
2023/12/23 06:48:54;;;;;;;;;;;;;;;;;;5092705;28;20280;-69
2023/12/23 06:51:19;;;;;;;;;;;;;;;;;;5093494;28;19908;-68
2023/12/23 06:53:45;;;;;;;;;;;;;;;;;;5094200;28;19928;-68
2023/12/23 06:56:11;;;;;;;;;;;;;;;;;;5092556;28;19908;-69
2023/12/23 06:58:37;;;;;;;;;;;;;;;;;;5093481;28;19919;-68
2023/12/23 07:01:04;;;;;;;;;;;;;;;;;;5093818;28;19908;-68
2023/12/23 07:03:30;;;;;;;;;;;;;;;;;;5093979;28;19912;-68
2023/12/23 07:05:57;;;;;;;;;;;;;;;;;;5093444;28;19908;-69
2023/12/23 07:08:22;;;;;;;;;;;;;;;;;;5093775;28;20314;-69
2023/12/23 07:10:48;;;;;;;;;;;;;;;;;;5093850;28;19908;-69
2023/12/23 07:13:14;;;;;;;;;;;;;;;;;;5093396;28;20003;-69
2023/12/23 07:15:40;;;;;;;;;;;;;;;;;;5093854;28;19908;-69
2023/12/23 07:18:07;;;;;;;;;;;;;;;;;;5095863;28;19908;-69
2023/12/23 07:20:33;;;;;;;;;;;;;;;;;;5097877;28;19908;-69
2023/12/23 07:22:59;;;;;;;;;;;;;;;;;;5097821;28;19953;-69
2023/12/23 07:25:25;;;;;;;;;;;;;;;;;;5097352;28;20348;-69
2023/12/23 07:27:51;;;;;;;;;;;;;;;;;;5097690;28;19916;-69
2023/12/23 07:30:17;;;;;;;;;;;;;;;;;;5097947;28;19912;-70
2023/12/23 07:32:43;;;;;;;;;;;;;;;;;;5097188;28;19923;-69
2023/12/23 07:35:09;;;;;;;;;;;;;;;;;;5097562;28;19923;-70
2023/12/23 07:37:35;;;;;;;;;;;;;;;;;;5096264;28;19951;-70
2023/12/23 07:40:04;;;;;;;;;;;;;;;;;;5097302;28;19908;-69
2023/12/23 07:42:30;;;;;;;;;;;;;;;;;;5097620;28;20276;-68
2023/12/23 07:44:56;;;;;;;;;;;;;;;;;;5097644;28;20003;-69
2023/12/23 07:47:22;;;;;;;;;;;;;;;;;;5096862;28;20384;-69
2023/12/23 07:49:48;;;;;;;;;;;;;;;;;;5097369;28;19930;-69
2023/12/23 07:52:14;;;;;;;;;;;;;;;;;;5095886;28;19933;-70
2023/12/23 07:54:40;;;;;;;;;;;;;;;;;;5096991;28;19979;-69
2023/12/23 07:57:06;;;;;;;;;;;;;;;;;;5097542;28;19915;-69
2023/12/23 07:59:32;;;;;;;;;;;;;;;;;;5097115;28;19912;-69
2023/12/23 08:01:58;;;;;;;;;;;;;;;;;;5096672;28;19908;-69
2023/12/23 08:04:24;;;;;;;;;;;;;;;;;;5097108;28;19917;-69
2023/12/23 08:06:51;;;;;;;;;;;;;;;;;;5095666;28;19990;-69
2023/12/23 08:09:17;;;;;;;;;;;;;;;;;;5096659;28;20021;-69
2023/12/23 08:11:43;;;;;;;;;;;;;;;;;;5096837;28;19908;-69
2023/12/23 08:14:11;;;;;;;;;;;;;;;;;;5096740;28;20003;-68
2023/12/23 08:16:36;;;;;;;;;;;;;;;;;;5096350;28;20378;-68
2023/12/23 08:19:03;;;;;;;;;;;;;;;;;;5096908;28;19908;-68
2023/12/23 08:21:29;;;;;;;;;;;;;;;;;;5096493;28;19914;-68
2023/12/23 08:23:55;;;;;;;;;;;;;;;;;;5095217;28;19916;-68
2023/12/23 08:26:21;;;;;;;;;;;;;;;;;;5095347;28;19908;-69
2023/12/23 08:28:47;;;;;;;;;;;;;;;;;;5095287;28;19919;-68
2023/12/23 08:31:13;;;;;;;;;;;;;;;;;;5096711;28;19919;-69
2023/12/23 08:33:39;;;;;;;;;;;;;;;;;;5097173;28;19908;-69
2023/12/23 08:36:05;;;;;;;;;;;;;;;;;;5096039;28;19913;-69
2023/12/23 08:38:31;;;;;;;;;;;;;;;;;;5095013;28;20361;-69
2023/12/23 08:40:57;;;;;;;;;;;;;;;;;;5095002;28;19919;-69
2023/12/23 08:43:23;;;;;;;;;;;;;;;;;;5094353;28;19920;-68
2023/12/23 08:45:49;;;;;;;;;;;;;;;;;;5096051;28;19962;-70
2023/12/23 08:48:15;;;;;;;;;;;;;;;;;;5096137;28;19908;-69
2023/12/23 08:50:41;;;;;;;;;;;;;;;;;;5095759;28;19908;-69
2023/12/23 08:53:07;;;;;;;;;;;;;;;;;;5096249;28;19908;-69
2023/12/23 08:55:32;;;;;;;;;;;;;;;;;;5095968;28;19953;-69
2023/12/23 08:57:58;;;;;;;;;;;;;;;;;;5095589;28;19950;-69
2023/12/23 09:00:24;;;;;;;;;;;;;;;;;;5095910;28;19955;-69
2023/12/23 09:02:50;;;;;;;;;;;;;;;;;;5095814;28;20485;-69
2023/12/23 09:05:16;;;;;;;;;;;;;;;;;;5095367;28;20383;-69
2023/12/23 09:07:42;;;;;;;;;;;;;;;;;;5096052;28;20364;-68
2023/12/23 09:10:08;;;;;;;;;;;;;;;;;;5094388;28;20260;-69
2023/12/23 09:12:35;;;;;;;;;;;;;;;;;;5095133;28;20318;-69
2023/12/23 09:15:01;;;;;;;;;;;;;;;;;;5095565;28;20364;-69
2023/12/23 09:17:27;;;;;;;;;;;;;;;;;;5095492;28;19918;-70
2023/12/23 09:19:53;;;;;;;;;;;;;;;;;;5095177;28;19955;-69
2023/12/23 09:22:19;;;;;;;;;;;;;;;;;;5095691;28;20249;-70
2023/12/23 09:24:45;;;;;;;;;;;;;;;;;;5093699;28;20350;-69
2023/12/23 09:27:11;;;;;;;;;;;;;;;;;;5094125;28;19912;-70
2023/12/23 09:29:37;;;;;;;;;;;;;;;;;;5094048;28;19912;-70
2023/12/23 09:32:03;;;;;;;;;;;;;;;;;;5094827;28;20303;-70
2023/12/23 09:34:29;;;;;;;;;;;;;;;;;;5095234;28;19909;-70
2023/12/23 09:36:55;;;;;;;;;;;;;;;;;;5093876;28;20006;-69
2023/12/23 09:39:21;;;;;;;;;;;;;;;;;;5094934;28;19908;-70
2023/12/23 09:41:47;;;;;;;;;;;;;;;;;;5095116;28;19920;-70
2023/12/23 09:44:13;;;;;;;;;;;;;;;;;;5094780;28;19958;-70
2023/12/23 09:46:39;;;;;;;;;;;;;;;;;;5094637;28;20006;-70
2023/12/23 09:49:05;;;;;;;;;;;;;;;;;;5094952;28;19909;-69
2023/12/23 09:51:31;;;;;;;;;;;;;;;;;;5095005;28;19908;-70
2023/12/23 09:53:59;;;;;;;;;;;;;;;;;;5094518;28;19919;-70
2023/12/23 09:56:25;;;;;;;;;;;;;;;;;;5093605;28;19908;-71
2023/12/23 09:58:51;;;;;;;;;;;;;;;;;;5095071;28;20267;-71
2023/12/23 10:01:17;;;;;;;;;;;;;;;;;;5094346;28;20431;-71
2023/12/23 10:03:43;;;;;;;;;;;;;;;;;;5094830;28;20391;-71
2023/12/23 10:06:09;;;;;;;;;;;;;;;;;;5094629;28;20356;-71
2023/12/23 10:08:35;;;;;;;;;;;;;;;;;;5094188;28;20364;-71
2023/12/23 10:11:01;;;;;;;;;;;;;;;;;;5094806;28;20383;-70
2023/12/23 10:13:26;;;;;;;;;;;;;;;;;;5093302;28;19915;-71
2023/12/23 10:15:53;;;;;;;;;;;;;;;;;;5094128;28;19916;-71
2023/12/23 10:18:19;;;;;;;;;;;;;;;;;;5094970;28;19915;-71
2023/12/23 10:20:44;;;;;;;;;;;;;;;;;;5094360;28;20280;-71
2023/12/23 10:23:10;;;;;;;;;;;;;;;;;;5093974;28;20004;-71
2023/12/23 10:25:36;;;;;;;;;;;;;;;;;;5094223;28;19916;-71
2023/12/23 10:28:05;;;;;;;;;;;;;;;;;;5094373;28;20356;-71
2023/12/23 10:30:31;;;;;;;;;;;;;;;;;;5094171;28;19914;-71
2023/12/23 10:32:57;;;;;;;;;;;;;;;;;;5094192;28;19912;-72
2023/12/23 10:35:23;;;;;;;;;;;;;;;;;;5092516;28;19908;-71
2023/12/23 10:37:49;;;;;;;;;;;;;;;;;;5094192;28;19908;-72
2023/12/23 10:40:15;;;;;;;;;;;;;;;;;;5094150;28;20315;-72
2023/12/23 10:42:41;;;;;;;;;;;;;;;;;;5093593;28;20360;-70
2023/12/23 10:45:07;;;;;;;;;;;;;;;;;;5092691;28;19916;-70
2023/12/23 10:47:33;;;;;;;;;;;;;;;;;;5093905;28;20258;-70
2023/12/23 10:49:59;;;;;;;;;;;;;;;;;;5092265;28;19915;-70
2023/12/23 10:52:25;;;;;;;;;;;;;;;;;;5093556;28;19908;-70
2023/12/23 10:54:51;;;;;;;;;;;;;;;;;;5094367;28;19943;-70
2023/12/23 10:57:17;;;;;;;;;;;;;;;;;;5093447;28;19908;-71
2023/12/23 10:59:43;;;;;;;;;;;;;;;;;;5093958;28;20378;-70
2023/12/23 11:02:08;;;;;;;;;;;;;;;;;;5093724;28;19908;-70
2023/12/23 11:04:35;;;;;;;;;;;;;;;;;;5092032;28;19916;-71
2023/12/23 11:07:12;;;;;;;;;;;;;;;;;;5132966;27;19915;-71
2023/12/23 11:10:06;;;;;;;;;;;;;;;;;;5132440;27;19916;-69
2023/12/23 11:12:32;;;;;;;;;;;;;;;;;;5131952;28;19918;-69
2023/12/23 11:15:07;;;;;;;;;;;;;;;;;;5111663;27;19916;-69
2023/12/23 11:17:33;;;;;;;;;;;;;;;;;;5111367;28;19965;-69
2023/12/23 11:19:59;;;;;;;;;;;;;;;;;;5111581;28;19912;-69
2023/12/23 11:22:25;;;;;;;;;;;;;;;;;;5111603;28;19908;-70
2023/12/23 11:24:51;;;;;;;;;;;;;;;;;;5109939;28;19914;-69
2023/12/23 11:27:17;;;;;;;;;;;;;;;;;;5111455;28;19965;-69
2023/12/23 11:31:45;;;;;;;;;;;;;;;;;;5111832;27;20299;-70
2023/12/23 11:34:11;;;;;;;;;;;;;;;;;;5111693;28;19916;-70
2023/12/23 11:40:12;;;;;;;;;;;;;;;;;;5111387;27;19916;-70
2023/12/23 11:42:38;;;;;;;;;;;;;;;;;;5111717;28;20390;-70
2023/12/23 11:45:04;;;;;;;;;;;;;;;;;;5111602;28;19908;-70
2023/12/23 11:47:30;;;;;;;;;;;;;;;;;;5111168;28;19908;-70
2023/12/23 11:49:56;;;;;;;;;;;;;;;;;;5110237;28;19999;-70
2023/12/23 11:54:08;;;;;;;;;;;;;;;;;;5111393;27;19922;-70
2023/12/23 11:56:34;;;;;;;;;;;;;;;;;;5110349;28;19954;-70
2023/12/23 11:59:40;;;;;;;;;;;;;;;;;;5111533;27;19916;-69
2023/12/23 12:10:50;;;;;;;;;;;;;;;;;;5091833;28;19923;-69
2023/12/23 12:13:43;;;;;;;;;;;;;;;;;;5071315;28;19923;-69
2023/12/23 12:16:09;;;;;;;;;;;;;;;;;;5071097;28;19995;-70
2023/12/23 12:18:35;;;;;;;;;;;;;;;;;;5071629;28;19935;-69
2023/12/23 12:21:01;;;;;;;;;;;;;;;;;;5070629;28;19916;-69
2023/12/23 12:26:00;;;;;;;;;;;;;;;;;;5091834;27;19916;-70
2023/12/23 12:28:26;;;;;;;;;;;;;;;;;;5090905;28;19912;-70
2023/12/23 12:33:17;;;;;;;;;;;;;;;;;;5091411;28;19912;-70
2023/12/23 12:36:42;;;;;;;;;;;;;;;;;;5050881;28;19923;-69
2023/12/23 12:39:07;;;;;;;;;;;;;;;;;;5049899;28;20440;-70
2023/12/23 12:46:11;;;;;;;;;;;;;;;;;;5092187;27;20374;-71
2023/12/23 12:48:36;;;;;;;;;;;;;;;;;;5090982;28;19999;-70
2023/12/23 12:51:59;;;;;;;;;;;;;;;;;;5112539;27;19916;-71
2023/12/23 12:54:25;;;;;;;;;;;;;;;;;;5111739;28;20015;-70
2023/12/23 12:58:30;;;;;;;;;;;;;;;;;;5112367;27;19916;-69
2023/12/23 13:01:17;;;;;;;;;;;;;;;;;;5112479;27;19919;-70
2023/12/23 13:06:08;;;;;;;;;;;;;;;;;;5111795;27;19919;-69
2023/12/23 13:08:34;;;;;;;;;;;;;;;;;;5110350;28;19999;-69
2023/12/23 13:12:16;;;;;;;;;;;;;;;;;;5111791;27;19916;-69
2023/12/23 13:16:51;;;;;;;;;;;;;;;;;;5091501;27;19938;-69
2023/12/23 13:19:17;;;;;;;;;;;;;;;;;;5091325;28;20485;-69
2023/12/23 13:25:16;;;;;;;;;;;;;;;;;;5091152;27;19916;-69
2023/12/23 13:27:41;;;;;;;;;;;;;;;;;;5091269;28;20430;-69
2023/12/23 13:32:07;;;;;;;;;;;;;;;;;;5091128;27;20299;-70
2023/12/23 13:34:33;;;;;;;;;;;;;;;;;;5091134;28;20373;-69
2023/12/23 13:36:59;;;;;;;;;;;;;;;;;;5091139;28;19915;-69
2023/12/23 13:41:08;;;;;;;;;;;;;;;;;;5112224;27;20295;-69
2023/12/23 13:43:34;;;;;;;;;;;;;;;;;;5110378;28;19917;-69
2023/12/23 13:46:00;;;;;;;;;;;;;;;;;;5109945;28;19915;-69
2023/12/23 13:51:44;;;;;;;;;;;;;;;;;;5111832;27;19912;-69
2023/12/23 13:56:43;;;;;;;;;;;;;;;;;;5091666;27;19923;-70
2023/12/23 13:59:09;;;;;;;;;;;;;;;;;;5090932;28;20007;-70
2023/12/23 14:01:35;;;;;;;;;;;;;;;;;;5091524;28;19908;-70
2023/12/23 14:04:25;;;;;;;;;;;;;;;;;;5112554;27;19922;-69
2023/12/23 14:08:00;;;;;;;;;;;;;;;;;;5099519;27;2099515;-69
2023/12/23 14:12:03;;;;;;;;;;;;;;;;;;5112002;27;19915;-69
2023/12/23 14:14:28;;;;;;;;;;;;;;;;;;5109831;28;19951;-68
2023/12/23 14:16:54;;;;;;;;;;;;;;;;;;5111588;28;19954;-68
2023/12/23 14:19:20;;;;;;;;;;;;;;;;;;5111553;28;19981;-68
2023/12/23 14:21:46;;;;;;;;;;;;;;;;;;5110975;28;19915;-68
2023/12/23 14:24:12;;;;;;;;;;;;;;;;;;5110209;28;19912;-68
2023/12/23 14:28:25;;;;;;;;;;;;;;;;;;5111661;27;20284;-69
2023/12/23 14:32:49;;;;;;;;;;;;;;;;;;5173872;27;20457;-69
2023/12/23 14:35:15;;;;;;;;;;;;;;;;;;5173332;27;19958;-69
2023/12/23 14:39:46;;;;;;;;;;;;;;;;;;5091305;27;19912;-69
2023/12/23 14:43:34;;;;;;;;;;;;;;;;;;5091775;27;19917;-69
2023/12/23 14:53:51;;;;;;;;;;;;;;;;;;5111975;27;19916;-70
2023/12/23 14:56:17;;;;;;;;;;;;;;;;;;5111267;28;20010;-71
2023/12/23 14:58:43;;;;;;;;;;;;;;;;;;5110329;28;19961;-69
2023/12/23 15:01:09;;;;;;;;;;;;;;;;;;5111493;28;19908;-69
2023/12/23 15:03:35;;;;;;;;;;;;;;;;;;5111072;28;19908;-69
2023/12/23 15:06:01;;;;;;;;;;;;;;;;;;5111440;28;19955;-69
2023/12/23 15:08:27;;;;;;;;;;;;;;;;;;5111399;28;19908;-69
2023/12/23 15:10:53;;;;;;;;;;;;;;;;;;5111122;28;19908;-69
2023/12/23 15:13:21;;;;;;;;;;;;;;;;;;5111153;28;20015;-70
2023/12/23 15:15:47;;;;;;;;;;;;;;;;;;5111314;28;19989;-69
2023/12/23 15:18:13;;;;;;;;;;;;;;;;;;5110876;28;19908;-69
2023/12/23 15:20:39;;;;;;;;;;;;;;;;;;5111489;28;19915;-69
2023/12/23 15:23:05;;;;;;;;;;;;;;;;;;5111177;28;19912;-69
2023/12/23 15:25:31;;;;;;;;;;;;;;;;;;5110680;28;19912;-69
2023/12/23 15:27:58;;;;;;;;;;;;;;;;;;5110981;28;19915;-70
2023/12/23 15:30:23;;;;;;;;;;;;;;;;;;5110620;28;19908;-69
2023/12/23 15:32:49;;;;;;;;;;;;;;;;;;5110925;28;19992;-69
2023/12/23 15:35:15;;;;;;;;;;;;;;;;;;5110993;28;19947;-70
2023/12/23 15:37:41;;;;;;;;;;;;;;;;;;5110520;28;19935;-69
2023/12/23 15:40:08;;;;;;;;;;;;;;;;;;5110873;28;20326;-69
2023/12/23 15:42:34;;;;;;;;;;;;;;;;;;5110784;28;19912;-69
2023/12/23 15:45:00;;;;;;;;;;;;;;;;;;5110282;28;20375;-70
2023/12/23 15:47:26;;;;;;;;;;;;;;;;;;5109446;28;20394;-70
2023/12/23 15:49:52;;;;;;;;;;;;;;;;;;5109361;28;19919;-69
2023/12/23 15:52:18;;;;;;;;;;;;;;;;;;5110180;28;19928;-71
2023/12/23 15:54:44;;;;;;;;;;;;;;;;;;5110464;28;20372;-68
2023/12/23 15:57:10;;;;;;;;;;;;;;;;;;5110654;28;19908;-69
2023/12/23 15:59:35;;;;;;;;;;;;;;;;;;5110023;28;19908;-69
2023/12/23 16:02:01;;;;;;;;;;;;;;;;;;5110450;28;19912;-70
2023/12/23 16:04:29;;;;;;;;;;;;;;;;;;5099689;28;19987;-70
2023/12/23 16:06:55;;;;;;;;;;;;;;;;;;5095042;28;19934;-70
2023/12/23 16:09:21;;;;;;;;;;;;;;;;;;5096706;28;19938;-71
2023/12/23 16:11:48;;;;;;;;;;;;;;;;;;5096805;28;19913;-70
2023/12/23 16:14:14;;;;;;;;;;;;;;;;;;5094936;28;19916;-70
2023/12/23 16:16:40;;;;;;;;;;;;;;;;;;5095308;28;20320;-70
2023/12/23 16:19:06;;;;;;;;;;;;;;;;;;5096611;28;20303;-70
2023/12/23 16:21:32;;;;;;;;;;;;;;;;;;5095255;28;20299;-70
2023/12/23 16:23:58;;;;;;;;;;;;;;;;;;5095206;28;20364;-70
2023/12/23 16:26:24;;;;;;;;;;;;;;;;;;5096857;28;19943;-70
2023/12/23 16:28:50;;;;;;;;;;;;;;;;;;5095985;28;20001;-70
2023/12/23 16:31:16;;;;;;;;;;;;;;;;;;5096418;28;20278;-70
2023/12/23 16:33:42;;;;;;;;;;;;;;;;;;5095858;28;19916;-70
2023/12/23 16:36:10;;;;;;;;;;;;;;;;;;5096195;28;19908;-69
2023/12/23 16:38:36;;;;;;;;;;;;;;;;;;5096227;28;20338;-70
2023/12/23 16:41:02;;;;;;;;;;;;;;;;;;5095982;28;19912;-70
2023/12/23 16:43:28;;;;;;;;;;;;;;;;;;5094730;28;19912;-71
2023/12/23 16:45:54;;;;;;;;;;;;;;;;;;5094782;28;19908;-71
2023/12/23 16:48:20;;;;;;;;;;;;;;;;;;5095558;28;19908;-69
2023/12/23 16:50:46;;;;;;;;;;;;;;;;;;5095895;28;19908;-69
2023/12/23 16:53:11;;;;;;;;;;;;;;;;;;5094392;28;20439;-69
2023/12/23 16:55:37;;;;;;;;;;;;;;;;;;5095420;28;20324;-69
2023/12/23 16:58:04;;;;;;;;;;;;;;;;;;5095793;28;20386;-69
2023/12/23 17:00:30;;;;;;;;;;;;;;;;;;5095893;28;19915;-70
2023/12/23 17:02:56;;;;;;;;;;;;;;;;;;5095275;28;19908;-71
2023/12/23 17:05:22;;;;;;;;;;;;;;;;;;5095948;28;20379;-70
2023/12/23 17:07:48;;;;;;;;;;;;;;;;;;5095532;28;19912;-70
2023/12/23 17:10:14;;;;;;;;;;;;;;;;;;5095075;28;19908;-70
2023/12/23 17:12:40;;;;;;;;;;;;;;;;;;5095388;28;19916;-70
2023/12/23 17:15:06;;;;;;;;;;;;;;;;;;5094663;28;19915;-70
2023/12/23 17:17:32;;;;;;;;;;;;;;;;;;5094708;28;20318;-70
2023/12/23 17:19:58;;;;;;;;;;;;;;;;;;5095283;28;20007;-70
2023/12/23 17:22:24;;;;;;;;;;;;;;;;;;5095339;28;19909;-69
2023/12/23 17:24:50;;;;;;;;;;;;;;;;;;5093649;28;20376;-70
2023/12/23 17:27:16;;;;;;;;;;;;;;;;;;5095208;28;20387;-70
2023/12/23 17:29:42;;;;;;;;;;;;;;;;;;5093806;28;19912;-70
2023/12/23 17:32:08;;;;;;;;;;;;;;;;;;5094675;28;19916;-70
2023/12/23 17:34:34;;;;;;;;;;;;;;;;;;5095090;28;19999;-70
2023/12/23 17:37:00;;;;;;;;;;;;;;;;;;5094666;28;19995;-70
2023/12/23 17:39:26;;;;;;;;;;;;;;;;;;5094934;28;20384;-70
2023/12/23 17:41:52;;;;;;;;;;;;;;;;;;5094952;28;20045;-70
2023/12/23 17:44:18;;;;;;;;;;;;;;;;;;5094706;28;19979;-70
2023/12/23 17:46:44;;;;;;;;;;;;;;;;;;5094848;28;19908;-69